createdAt,value
2022-11-26T00:01:41.136Z,101996.03
2022-11-26T00:06:44.984Z,101998.72
2022-11-26T00:11:46.977Z,101999.84
2022-11-26T00:16:49.173Z,102011.88
2022-11-26T00:21:51.005Z,102019.81
2022-11-26T00:26:53.016Z,102025.19
2022-11-26T00:31:54.948Z,102029.53
2022-11-26T00:36:56.850Z,102028.88
2022-11-26T00:41:58.782Z,102036.78
2022-11-26T00:47:00.794Z,102041.91
2022-11-26T00:52:03.204Z,102037.72
2022-11-26T00:57:05.034Z,102043.13
2022-11-26T01:02:06.835Z,102037.88
2022-11-26T01:07:11.094Z,102047.47
2022-11-26T01:12:15.100Z,102038.72
2022-11-26T01:17:16.896Z,102038.69
2022-11-26T01:22:23.837Z,102045.84
2022-11-26T01:27:25.793Z,102057.28
2022-11-26T01:32:29.630Z,102052.00
2022-11-26T01:37:31.569Z,102051.13
2022-11-26T01:42:47.009Z,102041.59
2022-11-26T01:47:49.795Z,102044.84
2022-11-26T01:52:51.865Z,102046.81
2022-11-26T01:57:53.798Z,102042.22
2022-11-26T02:02:56.274Z,102040.66
2022-11-26T02:07:58.718Z,102041.47
2022-11-26T02:13:00.927Z,102050.41
2022-11-26T02:18:07.424Z,102037.13
2022-11-26T02:23:38.847Z,102050.34
2022-11-26T02:29:08.633Z,102053.91
2022-11-26T02:34:37.691Z,102048.59
2022-11-26T02:39:39.973Z,102062.72
2022-11-26T02:44:45.410Z,102053.88
2022-11-26T02:49:50.023Z,102067.97
2022-11-26T02:54:53.111Z,102076.81
2022-11-26T02:59:55.193Z,102082.09
2022-11-26T03:05:00.325Z,102080.34
2022-11-26T03:10:03.082Z,102089.25
2022-11-26T03:15:05.376Z,102090.09
2022-11-26T03:20:08.415Z,102092.63
2022-11-26T03:25:10.961Z,102091.03
2022-11-26T03:30:13.119Z,102103.44
2022-11-26T03:35:15.325Z,102101.63
2022-11-26T03:40:17.905Z,102112.19
2022-11-26T03:45:19.871Z,102121.97
2022-11-26T03:50:21.789Z,102114.91
2022-11-26T03:55:23.653Z,102121.09
2022-11-26T04:00:25.699Z,102119.31
2022-11-26T04:05:27.620Z,102128.19
2022-11-26T04:10:29.716Z,102132.56
2022-11-26T04:15:31.856Z,102135.19
2022-11-26T04:20:33.932Z,102142.28
2022-11-26T04:25:36.139Z,102157.34
2022-11-26T04:30:38.165Z,102156.50
2022-11-26T04:35:39.984Z,102167.03
2022-11-26T04:40:41.932Z,102162.66
2022-11-26T04:45:43.832Z,102166.25
2022-11-26T04:50:45.973Z,102166.19
2022-11-26T04:55:51.875Z,102162.69
2022-11-26T05:00:53.846Z,102173.25
2022-11-26T05:05:55.778Z,102173.28
2022-11-26T05:10:58.942Z,102172.38
2022-11-26T05:16:00.800Z,102169.72
2022-11-26T05:21:05.919Z,102173.25
2022-11-26T05:26:07.729Z,102172.41
2022-11-26T05:31:09.706Z,102174.28
2022-11-26T05:36:11.654Z,102190.94
2022-11-26T05:41:13.522Z,102191.97
2022-11-26T05:46:18.142Z,102191.84
2022-11-26T05:51:20.264Z,102184.03
2022-11-26T05:56:22.383Z,102187.53
2022-11-26T06:01:24.218Z,102195.47
2022-11-26T06:06:26.031Z,102189.22
2022-11-26T06:11:27.813Z,102200.75
2022-11-26T06:16:29.726Z,102198.88
2022-11-26T06:21:31.627Z,102198.09
2022-11-26T06:26:33.616Z,102205.13
2022-11-26T06:31:35.478Z,102214.03
2022-11-26T06:36:37.449Z,102210.50
2022-11-26T06:41:39.524Z,102226.38
2022-11-26T06:46:41.375Z,102237.06
2022-11-26T06:51:43.284Z,102234.31
2022-11-26T06:56:45.183Z,102236.97
2022-11-26T07:01:47.621Z,102239.63
2022-11-26T07:06:50.278Z,102245.91
2022-11-26T07:11:52.100Z,102245.00
2022-11-26T07:16:54.082Z,102241.53
2022-11-26T07:21:55.997Z,102255.50
2022-11-26T07:26:58.072Z,102259.97
2022-11-26T07:32:00.210Z,102269.78
2022-11-26T07:37:02.414Z,102255.56
2022-11-26T07:42:04.492Z,102260.84
2022-11-26T07:47:06.316Z,102273.31
2022-11-26T07:52:08.222Z,102276.72
2022-11-26T07:57:11.269Z,102280.31
2022-11-26T08:02:15.286Z,102290.13
2022-11-26T08:07:23.181Z,102295.41
2022-11-26T08:12:26.563Z,102301.69
2022-11-26T08:17:28.401Z,102290.09
2022-11-26T08:22:30.890Z,102293.72
2022-11-26T08:27:33.869Z,102290.97
2022-11-26T08:32:35.623Z,102297.03
2022-11-26T08:37:37.466Z,102300.66
2022-11-26T08:42:39.179Z,102297.84
2022-11-26T08:47:41.361Z,102301.50
2022-11-26T08:52:44.045Z,102298.00
2022-11-26T08:57:47.372Z,102298.06
2022-11-26T09:02:49.564Z,102307.75
2022-11-26T09:07:51.561Z,102302.25
2022-11-26T09:12:53.377Z,102308.50
2022-11-26T09:17:55.474Z,102302.41
2022-11-26T09:22:57.213Z,102306.88
2022-11-26T09:27:58.848Z,102319.84
2022-11-26T09:33:00.904Z,102327.06
2022-11-26T09:38:03.093Z,102325.44
2022-11-26T09:43:16.212Z,102323.63
2022-11-26T09:48:22.104Z,102316.53
2022-11-26T09:53:32.487Z,102326.19
2022-11-26T09:58:36.927Z,102327.16
2022-11-26T10:03:39.426Z,102332.44
2022-11-26T10:08:58.490Z,102326.41
2022-11-26T10:14:37.733Z,102320.28
2022-11-26T10:19:57.712Z,102322.06
2022-11-26T10:25:00.231Z,102326.53
2022-11-26T10:30:16.352Z,102326.44
2022-11-26T10:35:29.533Z,102333.41
2022-11-26T10:40:32.576Z,102331.72
2022-11-26T10:45:41.051Z,102333.72
2022-11-26T10:50:48.195Z,102331.84
2022-11-26T10:55:52.664Z,102327.38
2022-11-26T11:00:58.830Z,102322.03
2022-11-26T11:06:20.670Z,102324.72
2022-11-26T11:11:28.851Z,102314.16
2022-11-26T11:16:44.300Z,102314.94
2022-11-26T11:21:48.557Z,102315.00
2022-11-26T11:26:55.760Z,102310.59
2022-11-26T11:31:58.027Z,102307.75
2022-11-26T11:37:15.072Z,102314.09
2022-11-26T11:42:21.969Z,102304.19
2022-11-26T11:48:07.365Z,102303.47
2022-11-26T11:53:44.711Z,102308.94
2022-11-26T11:58:46.511Z,102302.69
2022-11-26T12:04:26.832Z,102293.03
2022-11-26T12:09:57.463Z,102294.56
2022-11-26T12:15:26.586Z,102294.78
2022-11-26T12:20:45.324Z,102296.47
2022-11-26T12:26:06.319Z,102291.19
2022-11-26T12:31:14.584Z,102289.38
2022-11-26T12:36:36.162Z,102290.41
2022-11-26T12:41:43.948Z,102289.56
2022-11-26T12:47:12.498Z,102298.38
2022-11-26T12:52:14.277Z,102279.94
2022-11-26T12:57:24.160Z,102282.50
2022-11-26T13:02:32.434Z,102288.47
2022-11-26T13:08:11.100Z,102285.03
2022-11-26T13:13:28.266Z,102282.50
2022-11-26T13:18:34.854Z,102270.78
2022-11-26T13:24:18.697Z,102285.13
2022-11-26T13:29:37.423Z,102269.97
2022-11-26T13:34:39.539Z,102263.81
2022-11-26T13:40:00.011Z,102263.75
2022-11-26T13:45:24.263Z,102253.53
2022-11-26T13:50:38.240Z,102256.13
2022-11-26T13:55:54.684Z,102246.63
2022-11-26T14:00:56.458Z,102243.88
2022-11-26T14:06:02.417Z,102244.06
2022-11-26T14:11:07.041Z,102238.75
2022-11-26T14:16:10.231Z,102238.47
2022-11-26T14:21:13.257Z,102231.19
2022-11-26T14:26:24.106Z,102221.25
2022-11-26T14:31:31.350Z,102232.13
2022-11-26T14:36:33.452Z,102232.94
2022-11-26T14:41:41.280Z,102233.88
2022-11-26T14:46:46.200Z,102235.78
2022-11-26T14:51:50.546Z,102232.25
2022-11-26T14:56:52.664Z,102233.31
2022-11-26T15:01:54.810Z,102222.63
2022-11-26T15:06:58.766Z,102220.94
2022-11-26T15:12:11.329Z,102218.25
2022-11-26T15:17:19.531Z,102222.81
2022-11-26T15:22:25.112Z,102219.97
2022-11-26T15:27:52.806Z,102228.25
2022-11-26T15:33:14.687Z,102240.69
2022-11-26T15:38:18.910Z,102247.03
2022-11-26T15:43:41.886Z,102244.50
2022-11-26T15:48:53.179Z,102236.59
2022-11-26T15:53:55.483Z,102238.38
2022-11-26T15:59:00.899Z,102231.38
2022-11-26T16:04:06.724Z,102224.38
2022-11-26T16:09:17.603Z,102215.56
2022-11-26T16:14:37.406Z,102212.78
2022-11-26T16:19:48.826Z,102235.84
2022-11-26T16:25:22.133Z,102219.06
2022-11-26T16:30:24.360Z,102224.34
2022-11-26T16:35:44.646Z,102230.53
2022-11-26T16:40:46.864Z,102235.00
2022-11-26T16:45:50.496Z,102232.31
2022-11-26T16:50:54.852Z,102231.41
2022-11-26T16:55:57.734Z,102231.56
2022-11-26T17:00:59.882Z,102226.09
2022-11-26T17:06:07.260Z,102228.91
2022-11-26T17:11:13.091Z,102208.47
2022-11-26T17:16:20.667Z,102209.50
2022-11-26T17:21:22.750Z,102212.06
2022-11-26T17:26:25.159Z,102203.31
2022-11-26T17:31:27.230Z,102198.94
2022-11-26T17:36:36.450Z,102199.75
2022-11-26T17:41:38.936Z,102199.41
2022-11-26T17:47:09.213Z,102193.25
2022-11-26T17:52:04.035Z,102208.47
2022-11-26T17:57:11.021Z,102196.88
2022-11-26T18:02:13.134Z,102205.88
2022-11-26T18:07:18.342Z,102199.59
2022-11-26T18:12:25.507Z,102175.34
2022-11-26T18:17:28.329Z,102170.34
2022-11-26T18:22:30.476Z,102163.50
2022-11-26T18:27:32.422Z,102159.97
2022-11-26T18:32:35.647Z,102145.78
2022-11-26T18:37:39.621Z,102139.53
2022-11-26T18:42:41.572Z,102145.84
2022-11-26T18:47:43.729Z,102145.78
2022-11-26T18:52:45.619Z,102144.81
2022-11-26T18:57:47.609Z,102147.50
2022-11-26T19:02:49.776Z,102144.72
2022-11-26T19:07:52.133Z,102144.69
2022-11-26T19:12:54.126Z,102118.25
2022-11-26T19:17:56.397Z,102110.28
2022-11-26T19:22:58.512Z,102101.56
2022-11-26T19:28:04.727Z,102098.84
2022-11-26T19:33:07.118Z,102110.38
2022-11-26T19:38:09.061Z,102113.88
2022-11-26T19:43:10.980Z,102113.94
2022-11-26T19:48:12.953Z,102122.34
2022-11-26T19:53:14.751Z,102137.84
2022-11-26T19:58:16.820Z,102138.59
2022-11-26T20:03:19.425Z,102137.47
2022-11-26T20:08:21.520Z,102131.66
2022-11-26T20:13:23.838Z,102134.06
2022-11-26T20:18:25.720Z,102131.56
2022-11-26T20:23:28.144Z,102137.84
2022-11-26T20:28:30.307Z,102137.63
2022-11-26T20:33:32.483Z,102151.03
2022-11-26T20:38:35.022Z,102160.91
2022-11-26T20:43:38.239Z,102169.03
2022-11-26T20:48:42.268Z,102161.69
2022-11-26T20:53:49.985Z,102165.19
2022-11-26T20:58:52.346Z,102161.47
2022-11-26T21:03:55.366Z,102172.31
2022-11-26T21:09:01.833Z,102170.59
2022-11-26T21:14:04.143Z,102170.56
2022-11-26T21:19:06.363Z,102152.28
2022-11-26T21:24:08.567Z,102139.44
2022-11-26T21:29:10.399Z,102125.44
2022-11-26T21:34:12.322Z,102126.38
2022-11-26T21:39:16.059Z,102104.41
2022-11-26T21:44:18.035Z,102102.44
2022-11-26T21:49:20.142Z,102088.22
2022-11-26T21:54:22.232Z,102066.34
2022-11-26T21:59:24.162Z,102048.84
2022-11-26T22:04:25.952Z,102042.22
2022-11-26T22:09:27.851Z,102036.63
2022-11-26T22:14:29.625Z,102030.44
2022-11-26T22:19:31.692Z,102027.72
2022-11-26T22:24:33.652Z,102019.09
2022-11-26T22:29:35.793Z,102006.13
2022-11-26T22:34:37.628Z,101997.59
2022-11-26T22:39:39.890Z,101984.81
2022-11-26T22:44:41.943Z,101973.91
2022-11-26T22:49:44.088Z,101968.75
2022-11-26T22:54:46.289Z,101968.31
2022-11-26T22:59:48.387Z,101955.44
2022-11-26T23:04:52.454Z,101957.16
2022-11-26T23:09:54.748Z,101956.19
2022-11-26T23:14:56.619Z,101957.13
2022-11-26T23:19:58.568Z,101955.31
2022-11-26T23:25:00.425Z,101927.78
2022-11-26T23:30:02.739Z,101919.00
2022-11-26T23:35:04.958Z,101916.31
2022-11-26T23:40:09.683Z,101911.00
2022-11-26T23:45:11.760Z,101912.78
2022-11-26T23:50:13.625Z,101917.31
2022-11-26T23:55:16.828Z,101912.78
